createdAt,value
2022-12-08T00:01:19.320Z,9.93
2022-12-08T00:03:47.433Z,11.33
2022-12-08T00:06:48.879Z,7.50
2022-12-08T00:09:22.339Z,8.53
2022-12-08T00:12:06.752Z,8.77
2022-12-08T00:14:36.672Z,8.50
2022-12-08T00:17:05.729Z,9.20
2022-12-08T00:19:33.595Z,9.53
2022-12-08T00:22:01.013Z,9.43
2022-12-08T00:24:32.788Z,8.00
2022-12-08T00:27:00.517Z,10.88
2022-12-08T00:29:28.492Z,7.83
2022-12-08T00:31:56.102Z,8.63
2022-12-08T00:34:23.509Z,9.60
2022-12-08T00:36:51.379Z,10.67
2022-12-08T00:39:19.009Z,12.23
2022-12-08T00:42:02.051Z,9.57
2022-12-08T00:44:29.571Z,10.33
2022-12-08T00:46:57.307Z,12.30
2022-12-08T00:49:25.284Z,12.27
2022-12-08T00:51:52.719Z,8.33
2022-12-08T00:54:20.446Z,9.27
2022-12-08T00:56:47.963Z,10.17
2022-12-08T00:59:17.361Z,8.63
2022-12-08T01:01:46.517Z,9.13
2022-12-08T01:04:20.134Z,9.70
2022-12-08T01:06:48.624Z,9.67
2022-12-08T01:09:18.534Z,8.93
2022-12-08T01:11:46.721Z,8.70
2022-12-08T01:14:14.589Z,8.60
2022-12-08T01:16:45.335Z,7.53
2022-12-08T01:19:14.781Z,10.10
2022-12-08T01:21:43.248Z,7.27
2022-12-08T01:24:13.048Z,12.23
2022-12-08T01:26:44.172Z,11.47
2022-12-08T01:29:15.342Z,7.47
2022-12-08T01:31:44.807Z,12.53
2022-12-08T01:34:14.939Z,11.40
2022-12-08T01:36:46.150Z,9.57
2022-12-08T01:39:17.264Z,9.07
2022-12-08T01:41:45.640Z,8.47
2022-12-08T01:44:51.965Z,9.50
2022-12-08T01:47:19.518Z,7.07
2022-12-08T01:49:47.650Z,10.60
2022-12-08T01:52:22.062Z,6.83
2022-12-08T01:54:56.177Z,9.53
2022-12-08T01:57:33.042Z,13.17
2022-12-08T02:00:08.640Z,10.20
2022-12-08T02:02:57.921Z,9.83
2022-12-08T02:05:28.605Z,8.97
2022-12-08T02:07:57.861Z,11.90
2022-12-08T02:10:28.451Z,9.83
2022-12-08T02:12:58.067Z,15.43
2022-12-08T02:15:38.975Z,12.10
2022-12-08T02:18:35.435Z,12.33
2022-12-08T02:21:11.634Z,9.77
2022-12-08T02:23:53.750Z,12.20
2022-12-08T02:26:46.083Z,9.55
2022-12-08T02:29:38.670Z,11.02
2022-12-08T02:32:28.802Z,12.63
2022-12-08T02:35:14.038Z,7.17
2022-12-08T02:37:51.259Z,11.07
2022-12-08T02:40:27.969Z,13.47
2022-12-08T02:43:01.478Z,9.73
2022-12-08T02:45:47.505Z,10.50
2022-12-08T02:48:16.327Z,10.13
2022-12-08T02:50:44.163Z,9.97
2022-12-08T02:56:07.435Z,10.27
2022-12-08T02:59:08.376Z,9.20
2022-12-08T03:02:01.821Z,8.43
2022-12-08T03:04:58.453Z,11.23
2022-12-08T03:07:35.487Z,10.77
2022-12-08T03:10:33.804Z,10.10
2022-12-08T03:13:11.376Z,7.23
2022-12-08T03:15:40.228Z,8.67
2022-12-08T03:18:11.265Z,8.53
2022-12-08T03:20:40.572Z,11.07
2022-12-08T03:23:11.103Z,8.27
2022-12-08T03:25:44.142Z,9.73
2022-12-08T03:28:12.990Z,7.80
2022-12-08T03:30:43.379Z,8.87
2022-12-08T03:33:18.968Z,7.20
2022-12-08T03:35:47.534Z,5.47
2022-12-08T03:38:16.875Z,9.97
2022-12-08T03:41:05.593Z,7.73
2022-12-08T03:43:33.181Z,8.53
2022-12-08T03:46:00.703Z,7.20
2022-12-08T03:48:28.175Z,9.27
2022-12-08T03:50:55.631Z,9.77
2022-12-08T03:53:23.064Z,7.30
2022-12-08T03:55:50.453Z,9.30
2022-12-08T03:58:18.195Z,10.13
2022-12-08T04:00:45.540Z,9.43
2022-12-08T04:03:12.929Z,9.20
2022-12-08T04:05:43.229Z,10.90
2022-12-08T04:08:10.713Z,11.67
2022-12-08T04:10:38.085Z,11.00
2022-12-08T04:13:05.374Z,10.37
2022-12-08T04:15:32.743Z,10.83
2022-12-08T04:18:00.096Z,8.87
2022-12-08T04:20:27.523Z,11.67
2022-12-08T04:22:54.771Z,10.57
2022-12-08T04:25:22.299Z,12.60
2022-12-08T04:27:49.703Z,12.67
2022-12-08T04:30:17.175Z,11.23
2022-12-08T04:32:47.506Z,14.43
2022-12-08T04:35:15.207Z,10.00
2022-12-08T04:37:43.416Z,15.50
2022-12-08T04:40:12.177Z,13.27
2022-12-08T04:42:40.422Z,11.67
2022-12-08T04:45:08.381Z,10.47
2022-12-08T04:47:35.854Z,10.20
2022-12-08T04:50:04.788Z,10.67
2022-12-08T04:52:32.273Z,10.40
2022-12-08T04:54:59.623Z,10.07
2022-12-08T04:57:27.010Z,11.53
2022-12-08T04:59:54.348Z,13.80
2022-12-08T05:02:21.743Z,10.60
2022-12-08T05:04:49.868Z,10.43
2022-12-08T05:07:19.059Z,9.63
2022-12-08T05:09:46.690Z,10.50
2022-12-08T05:12:14.949Z,11.60
2022-12-08T05:14:42.391Z,11.20
2022-12-08T05:17:10.042Z,11.27
2022-12-08T05:19:37.777Z,14.93
2022-12-08T05:22:05.174Z,11.00
2022-12-08T05:24:33.819Z,11.13
2022-12-08T05:27:01.265Z,13.43
2022-12-08T05:29:28.669Z,14.13
2022-12-08T05:31:56.239Z,11.47
2022-12-08T05:34:23.684Z,11.47
2022-12-08T05:36:51.063Z,12.13
2022-12-08T05:39:18.586Z,10.53
2022-12-08T05:41:45.980Z,13.17
2022-12-08T05:44:13.359Z,10.57
2022-12-08T05:46:41.015Z,12.47
2022-12-08T05:49:08.498Z,12.27
2022-12-08T05:51:35.851Z,9.93
2022-12-08T05:54:03.571Z,10.77
2022-12-08T05:56:32.367Z,11.07
2022-12-08T05:58:59.736Z,10.50
2022-12-08T06:01:29.433Z,8.47
2022-12-08T06:03:58.872Z,11.07
2022-12-08T06:06:26.754Z,11.83
2022-12-08T06:08:54.392Z,10.70
2022-12-08T06:11:24.990Z,9.87
2022-12-08T06:13:52.890Z,10.70
2022-12-08T06:16:20.860Z,11.80
2022-12-08T06:18:48.486Z,9.13
2022-12-08T06:21:17.088Z,11.00
2022-12-08T06:23:45.187Z,9.87
2022-12-08T06:26:14.701Z,12.37
2022-12-08T06:28:42.971Z,11.70
2022-12-08T06:31:16.227Z,11.43
2022-12-08T06:33:45.532Z,9.57
2022-12-08T06:36:15.258Z,11.00
2022-12-08T06:38:43.777Z,10.40
2022-12-08T06:41:12.397Z,12.20
2022-12-08T06:43:41.042Z,10.83
2022-12-08T06:46:12.086Z,11.10
2022-12-08T06:48:39.609Z,7.87
2022-12-08T06:51:09.624Z,11.37
2022-12-08T06:53:37.842Z,10.47
2022-12-08T06:56:06.154Z,11.27
2022-12-08T06:58:34.206Z,8.53
2022-12-08T07:01:08.453Z,9.10
2022-12-08T07:03:36.875Z,11.00
2022-12-08T07:06:05.603Z,9.83
2022-12-08T07:08:34.611Z,9.07
2022-12-08T07:11:08.414Z,7.30
2022-12-08T07:13:36.124Z,10.17
2022-12-08T07:16:07.199Z,13.37
2022-12-08T07:18:35.282Z,13.10
2022-12-08T07:21:13.251Z,11.97
2022-12-08T07:23:41.227Z,10.80
2022-12-08T07:26:11.671Z,9.87
2022-12-08T07:28:40.949Z,9.20
2022-12-08T07:31:16.456Z,9.80
2022-12-08T07:33:43.985Z,9.80
2022-12-08T07:36:11.487Z,9.97
2022-12-08T07:38:39.008Z,9.10
2022-12-08T07:41:06.468Z,12.70
2022-12-08T07:43:33.884Z,10.33
2022-12-08T07:46:01.489Z,11.77
2022-12-08T07:48:29.184Z,9.30
2022-12-08T07:51:05.395Z,8.80
2022-12-08T07:53:33.300Z,8.50
2022-12-08T07:56:01.022Z,10.63
2022-12-08T07:58:28.452Z,11.40
2022-12-08T08:00:55.955Z,10.40
2022-12-08T08:03:23.499Z,9.73
2022-12-08T08:05:50.882Z,10.13
2022-12-08T08:08:18.886Z,6.47
2022-12-08T08:10:47.465Z,10.40
2022-12-08T08:13:14.869Z,10.07
2022-12-08T08:15:42.317Z,7.93
2022-12-08T08:18:10.010Z,8.80
2022-12-08T08:20:37.480Z,9.07
2022-12-08T08:23:04.840Z,10.30
2022-12-08T08:25:32.406Z,10.17
2022-12-08T08:28:01.029Z,8.60
2022-12-08T08:30:29.744Z,11.07
2022-12-08T08:32:57.430Z,9.87
2022-12-08T08:35:25.129Z,10.93
2022-12-08T08:37:52.548Z,8.93
2022-12-08T08:40:19.984Z,9.30
2022-12-08T08:42:47.392Z,9.37
2022-12-08T08:45:14.923Z,10.07
2022-12-08T08:47:42.558Z,10.77
2022-12-08T08:50:10.368Z,13.03
2022-12-08T08:52:37.881Z,9.70
2022-12-08T08:55:05.873Z,8.33
2022-12-08T08:57:33.257Z,13.77
2022-12-08T09:00:00.687Z,12.97
2022-12-08T09:02:28.045Z,11.00
2022-12-08T09:04:55.535Z,10.53
2022-12-08T09:07:23.156Z,11.67
2022-12-08T09:09:50.602Z,11.37
2022-12-08T09:12:17.971Z,9.63
2022-12-08T09:14:46.208Z,9.97
2022-12-08T09:17:14.047Z,9.37
2022-12-08T09:19:41.711Z,9.83
2022-12-08T09:22:09.108Z,11.93
2022-12-08T09:24:36.480Z,14.83
2022-12-08T09:27:03.951Z,12.30
2022-12-08T09:29:36.002Z,8.77
2022-12-08T09:32:03.975Z,10.00
2022-12-08T09:34:31.974Z,10.57
2022-12-08T09:36:59.697Z,11.20
2022-12-08T09:39:27.309Z,11.37
2022-12-08T09:42:02.829Z,12.00
2022-12-08T09:45:01.607Z,11.00
2022-12-08T09:47:36.578Z,11.10
2022-12-08T09:50:16.078Z,11.70
2022-12-08T09:52:52.999Z,11.80
2022-12-08T09:55:25.541Z,11.67
2022-12-08T09:58:03.366Z,12.05
2022-12-08T10:00:31.251Z,10.10
2022-12-08T10:03:00.196Z,9.43
2022-12-08T10:05:29.550Z,12.00
2022-12-08T10:08:08.969Z,11.00
2022-12-08T10:10:42.566Z,13.53
2022-12-08T10:13:38.188Z,12.73
2022-12-08T10:16:30.468Z,10.03
2022-12-08T10:19:10.043Z,12.75
2022-12-08T10:21:39.339Z,12.40
2022-12-08T10:24:16.376Z,12.23
2022-12-08T10:26:44.390Z,11.03
2022-12-08T10:29:14.371Z,8.90
2022-12-08T10:31:42.216Z,11.13
2022-12-08T10:34:25.422Z,11.80
2022-12-08T10:36:58.540Z,12.90
2022-12-08T10:39:44.046Z,11.23
2022-12-08T10:42:22.146Z,11.73
2022-12-08T10:45:20.418Z,10.97
2022-12-08T10:47:58.884Z,15.00
2022-12-08T10:50:36.483Z,12.67
2022-12-08T10:53:13.829Z,10.10
2022-12-08T10:55:52.798Z,11.80
2022-12-08T10:58:35.508Z,12.43
2022-12-08T11:01:27.998Z,10.43
2022-12-08T11:03:58.915Z,13.65
2022-12-08T11:06:36.118Z,12.97
2022-12-08T11:09:24.117Z,10.67
2022-12-08T11:11:57.490Z,12.20
2022-12-08T11:14:51.696Z,8.43
2022-12-08T11:17:29.600Z,12.60
2022-12-08T11:20:04.296Z,10.07
2022-12-08T11:22:42.683Z,11.07
2022-12-08T11:25:21.618Z,8.43
2022-12-08T11:27:51.489Z,12.00
2022-12-08T11:30:26.855Z,9.23
2022-12-08T11:33:03.808Z,13.90
2022-12-08T11:35:35.597Z,12.60
2022-12-08T11:38:23.101Z,9.40
2022-12-08T11:40:55.865Z,12.93
2022-12-08T11:46:05.077Z,11.00
2022-12-08T11:48:41.585Z,12.57
2022-12-08T11:51:27.018Z,16.43
2022-12-08T11:54:29.717Z,15.00
2022-12-08T11:57:03.730Z,14.20
2022-12-08T11:59:35.543Z,11.83
2022-12-08T12:02:04.859Z,12.73
2022-12-08T12:04:39.207Z,12.90
2022-12-08T12:07:31.726Z,14.73
2022-12-08T12:10:27.581Z,13.93
2022-12-08T12:13:30.051Z,13.53
2022-12-08T12:16:28.335Z,14.73
2022-12-08T12:19:01.077Z,12.20
2022-12-08T12:21:39.391Z,10.37
2022-12-08T12:24:19.660Z,12.63
2022-12-08T12:27:19.529Z,11.37
2022-12-08T12:29:56.157Z,12.00
2022-12-08T12:32:24.973Z,16.97
2022-12-08T12:35:02.214Z,11.47
2022-12-08T12:37:44.396Z,14.00
2022-12-08T12:40:20.603Z,13.27
2022-12-08T12:43:15.214Z,10.70
2022-12-08T12:45:47.465Z,13.57
2022-12-08T12:48:26.414Z,10.23
2022-12-08T12:50:55.996Z,13.20
2022-12-08T12:53:50.227Z,9.43
2022-12-08T12:56:51.532Z,9.23
2022-12-08T12:59:36.855Z,12.70
2022-12-08T13:02:26.460Z,11.80
2022-12-08T13:05:02.501Z,10.23
2022-12-08T13:07:36.591Z,14.50
2022-12-08T13:10:20.803Z,9.40
2022-12-08T13:13:08.134Z,10.77
2022-12-08T13:15:56.231Z,8.67
2022-12-08T13:18:31.784Z,9.20
2022-12-08T13:21:20.214Z,12.17
2022-12-08T13:24:14.053Z,9.20
2022-12-08T13:26:49.593Z,13.67
2022-12-08T13:29:24.257Z,13.00
2022-12-08T13:31:58.130Z,19.93
2022-12-08T13:34:37.616Z,10.97
2022-12-08T13:37:28.722Z,11.43
2022-12-08T13:40:02.160Z,10.43
2022-12-08T13:42:41.301Z,4.17
2022-12-08T13:45:27.864Z,11.40
2022-12-08T13:48:41.616Z,12.70
2022-12-08T13:57:14.165Z,13.53
2022-12-08T13:59:45.840Z,11.73
2022-12-08T14:02:32.114Z,14.07
2022-12-08T14:07:51.650Z,11.23
2022-12-08T14:10:24.880Z,6.25
2022-12-08T14:12:58.314Z,12.27
2022-12-08T14:15:27.792Z,10.90
2022-12-08T14:17:58.250Z,16.52
2022-12-08T14:20:30.758Z,15.90
2022-12-08T14:23:00.110Z,11.38
2022-12-08T14:25:28.966Z,11.97
2022-12-08T14:28:01.520Z,14.27
2022-12-08T14:30:32.701Z,12.23
2022-12-08T14:33:02.243Z,12.00
2022-12-08T14:35:33.155Z,9.67
2022-12-08T14:38:05.451Z,14.53
2022-12-08T14:40:36.857Z,13.48
2022-12-08T14:43:15.181Z,12.63
2022-12-08T14:45:53.600Z,12.23
2022-12-08T14:48:23.802Z,13.90
2022-12-08T14:51:07.449Z,13.77
2022-12-08T14:53:42.125Z,13.60
2022-12-08T14:56:28.665Z,13.37
2022-12-08T14:59:15.030Z,16.13
2022-12-08T15:01:44.182Z,14.63
2022-12-08T15:04:22.491Z,12.27
2022-12-08T15:06:58.321Z,13.57
2022-12-08T15:09:46.113Z,13.73
2022-12-08T15:12:27.623Z,12.60
2022-12-08T15:15:06.159Z,15.57
2022-12-08T15:17:47.932Z,13.23
2022-12-08T15:20:49.349Z,12.80
2022-12-08T15:23:30.732Z,19.50
2022-12-08T15:25:59.965Z,15.73
2022-12-08T15:28:30.633Z,14.07
2022-12-08T15:31:01.025Z,10.87
2022-12-08T15:33:31.992Z,15.40
2022-12-08T15:36:00.772Z,10.47
2022-12-08T15:38:31.102Z,15.87
2022-12-08T15:40:59.086Z,13.40
2022-12-08T15:43:27.704Z,12.93
2022-12-08T15:46:00.408Z,13.97
2022-12-08T15:48:30.508Z,14.77
2022-12-08T15:50:59.422Z,15.63
2022-12-08T15:53:27.558Z,19.07
2022-12-08T15:56:26.329Z,15.03
2022-12-08T15:58:58.993Z,14.63
2022-12-08T16:01:27.572Z,16.43
2022-12-08T16:09:38.731Z,13.23
2022-12-08T16:13:13.309Z,12.13
2022-12-08T16:18:08.099Z,15.20
2022-12-08T16:21:06.570Z,12.63
2022-12-08T16:23:42.287Z,15.93
2022-12-08T16:26:35.557Z,15.53
2022-12-08T16:31:33.648Z,17.83
2022-12-08T16:34:01.341Z,17.60
2022-12-08T16:36:28.912Z,16.67
2022-12-08T16:38:56.458Z,14.80
2022-12-08T16:41:39.358Z,16.30
2022-12-08T16:46:35.078Z,15.20
2022-12-08T16:49:03.980Z,16.90
2022-12-08T16:51:34.949Z,20.50
2022-12-08T16:54:02.670Z,15.33
2022-12-08T16:56:33.251Z,17.80
2022-12-08T16:59:02.164Z,18.87
2022-12-08T17:01:32.866Z,14.93
2022-12-08T17:04:29.674Z,13.77
2022-12-08T17:06:48.206Z,14.43
2022-12-08T17:09:15.829Z,15.47
2022-12-08T17:11:44.055Z,15.73
2022-12-08T17:14:13.325Z,19.47
2022-12-08T17:16:41.770Z,19.50
2022-12-08T17:19:09.955Z,19.33
2022-12-08T17:21:37.549Z,19.93
2022-12-08T17:24:05.280Z,19.87
2022-12-08T17:26:33.015Z,19.33
2022-12-08T17:29:03.630Z,20.67
2022-12-08T17:31:32.827Z,16.83
2022-12-08T17:34:03.298Z,22.93
2022-12-08T17:36:30.754Z,18.07
2022-12-08T17:39:03.618Z,20.13
2022-12-08T17:41:31.193Z,16.37
2022-12-08T17:43:58.727Z,23.60
2022-12-08T17:46:26.428Z,20.87
2022-12-08T17:48:54.655Z,21.77
2022-12-08T17:51:22.172Z,21.97
2022-12-08T17:53:49.803Z,17.13
2022-12-08T17:56:21.235Z,29.93
2022-12-08T17:58:54.780Z,21.47
2022-12-08T18:01:23.911Z,21.13
2022-12-08T18:03:52.142Z,14.90
2022-12-08T18:06:22.405Z,18.77
2022-12-08T18:08:52.150Z,18.67
2022-12-08T18:11:20.767Z,20.33
2022-12-08T18:13:49.555Z,19.73
2022-12-08T18:16:18.410Z,11.97
2022-12-08T18:18:46.027Z,23.87
2022-12-08T18:21:21.439Z,19.93
2022-12-08T18:23:50.907Z,22.93
2022-12-08T18:26:20.868Z,19.10
2022-12-08T18:28:48.886Z,18.50
2022-12-08T18:31:20.003Z,21.23
2022-12-08T18:33:48.566Z,14.97
2022-12-08T18:36:19.257Z,23.80
2022-12-08T18:38:49.647Z,18.70
2022-12-08T18:41:31.660Z,27.43
2022-12-08T18:44:02.163Z,24.38
2022-12-08T18:46:30.282Z,24.77
2022-12-08T18:48:58.434Z,24.40
2022-12-08T18:51:26.143Z,20.90
2022-12-08T18:53:54.295Z,28.57
2022-12-08T18:56:25.501Z,25.90
2022-12-08T18:58:57.361Z,29.37
2022-12-08T19:01:33.683Z,29.93
2022-12-08T19:06:57.804Z,28.20
2022-12-08T19:09:27.124Z,25.40
2022-12-08T19:11:55.495Z,29.93
2022-12-08T19:14:27.911Z,26.10
2022-12-08T19:16:58.821Z,23.27
2022-12-08T19:19:27.638Z,29.20
2022-12-08T19:21:55.782Z,28.93
2022-12-08T19:24:25.572Z,28.97
2022-12-08T19:26:53.301Z,27.47
2022-12-08T19:29:21.999Z,28.55
2022-12-08T19:31:50.197Z,31.03
2022-12-08T19:34:18.286Z,32.27
2022-12-08T19:36:49.092Z,30.20
2022-12-08T19:39:35.313Z,29.83
2022-12-08T19:42:20.276Z,30.87
2022-12-08T19:44:55.278Z,23.37
2022-12-08T19:47:26.931Z,30.60
2022-12-08T19:50:15.451Z,27.83
2022-12-08T19:52:45.777Z,28.00
2022-12-08T19:55:15.818Z,25.83
2022-12-08T19:57:43.748Z,29.77
2022-12-08T20:00:13.133Z,29.73
2022-12-08T20:02:43.953Z,30.93
2022-12-08T20:05:13.024Z,30.85
2022-12-08T20:07:41.318Z,33.90
2022-12-08T20:10:17.869Z,34.10
2022-12-08T20:12:45.463Z,31.83
2022-12-08T20:15:13.116Z,32.77
2022-12-08T20:17:41.261Z,38.40
2022-12-08T20:20:10.852Z,34.03
2022-12-08T20:22:38.716Z,31.37
2022-12-08T20:25:06.785Z,30.75
2022-12-08T20:27:34.426Z,30.67
2022-12-08T20:30:02.081Z,29.87
2022-12-08T20:32:31.547Z,35.77
2022-12-08T20:34:59.127Z,31.40
2022-12-08T20:37:26.791Z,31.20
2022-12-08T20:39:57.506Z,28.30
2022-12-08T20:42:25.073Z,31.60
2022-12-08T20:44:52.621Z,36.57
2022-12-08T20:47:20.410Z,31.30
2022-12-08T20:49:48.303Z,30.87
2022-12-08T20:52:15.801Z,35.77
2022-12-08T20:54:43.177Z,32.80
2022-12-08T20:57:10.781Z,33.57
2022-12-08T20:59:38.621Z,31.88
2022-12-08T21:02:06.446Z,36.53
2022-12-08T21:04:34.332Z,33.28
2022-12-08T21:07:02.466Z,35.80
2022-12-08T21:09:30.624Z,36.53
2022-12-08T21:11:58.113Z,24.00
2022-12-08T21:14:26.149Z,33.33
2022-12-08T21:16:54.815Z,35.08
2022-12-08T21:19:22.811Z,26.53
2022-12-08T21:21:51.248Z,30.57
2022-12-08T21:24:19.734Z,29.80
2022-12-08T21:26:47.420Z,34.90
2022-12-08T21:29:15.224Z,30.77
2022-12-08T21:31:42.795Z,30.25
2022-12-08T21:34:11.491Z,35.42
2022-12-08T21:36:39.423Z,30.52
2022-12-08T21:39:12.820Z,34.75
2022-12-08T21:41:55.972Z,33.47
2022-12-08T21:44:24.099Z,32.55
2022-12-08T21:46:52.144Z,31.08
2022-12-08T21:49:20.219Z,32.08
2022-12-08T21:51:47.830Z,31.02
2022-12-08T21:54:18.996Z,30.45
2022-12-08T21:56:49.047Z,33.57
2022-12-08T21:59:18.165Z,29.60
2022-12-08T22:01:45.967Z,32.10
2022-12-08T22:04:18.168Z,32.63
2022-12-08T22:06:45.995Z,24.33
2022-12-08T22:09:15.469Z,29.40
2022-12-08T22:11:43.977Z,31.52
2022-12-08T22:14:14.917Z,30.80
2022-12-08T22:16:44.267Z,30.08
2022-12-08T22:19:12.662Z,27.42
2022-12-08T22:21:40.478Z,30.92
2022-12-08T22:24:08.247Z,34.47
2022-12-08T22:26:36.043Z,17.52
2022-12-08T22:29:03.694Z,31.05
2022-12-08T22:31:31.472Z,29.70
2022-12-08T22:33:59.678Z,29.98
2022-12-08T22:36:28.306Z,34.20
2022-12-08T22:38:55.811Z,35.78
2022-12-08T22:41:23.795Z,35.45
2022-12-08T22:43:51.403Z,32.45
2022-12-08T22:46:23.384Z,36.22
2022-12-08T22:48:51.761Z,31.38
2022-12-08T22:51:20.108Z,32.00
2022-12-08T22:53:48.338Z,32.22
2022-12-08T22:56:18.179Z,32.00
2022-12-08T22:58:46.032Z,31.30
2022-12-08T23:01:30.086Z,31.17
2022-12-08T23:03:58.527Z,35.00
2022-12-08T23:06:27.746Z,32.78
2022-12-08T23:08:55.957Z,35.67
2022-12-08T23:11:25.469Z,32.03
2022-12-08T23:13:53.257Z,32.08
2022-12-08T23:16:20.839Z,36.38
2022-12-08T23:18:48.455Z,31.88
2022-12-08T23:21:19.404Z,29.83
2022-12-08T23:23:47.257Z,37.78
2022-12-08T23:26:19.823Z,33.75
2022-12-08T23:28:47.592Z,29.88
2022-12-08T23:31:16.017Z,33.25
2022-12-08T23:33:44.430Z,32.75
2022-12-08T23:36:13.775Z,30.50
2022-12-08T23:38:41.578Z,26.30
2022-12-08T23:41:10.874Z,33.75
2022-12-08T23:43:38.399Z,32.38
2022-12-08T23:46:06.280Z,35.40
2022-12-08T23:48:35.080Z,33.22
2022-12-08T23:51:02.692Z,29.10
2022-12-08T23:53:32.173Z,33.38
2022-12-08T23:56:01.361Z,30.60
2022-12-08T23:58:30.917Z,32.30
